sensor_id;sensor_type;location;lat;lon;timestamp;P1;durP1;ratioP1;P2;durP2;ratioP2
67798;SDS011;54596;43.216;27.904;2023-06-04T00:01:51;14.07;;;6.60;;
67798;SDS011;54596;43.216;27.904;2023-06-04T00:04:17;12.63;;;6.53;;
67798;SDS011;54596;43.216;27.904;2023-06-04T00:06:42;11.07;;;5.93;;
67798;SDS011;54596;43.216;27.904;2023-06-04T00:09:09;15.35;;;6.47;;
67798;SDS011;54596;43.216;27.904;2023-06-04T00:11:34;11.57;;;6.05;;
67798;SDS011;54596;43.216;27.904;2023-06-04T00:14:00;15.13;;;6.65;;
67798;SDS011;54596;43.216;27.904;2023-06-04T00:16:26;11.95;;;6.22;;
67798;SDS011;54596;43.216;27.904;2023-06-04T00:18:52;13.07;;;6.28;;
67798;SDS011;54596;43.216;27.904;2023-06-04T00:21:18;14.82;;;6.47;;
67798;SDS011;54596;43.216;27.904;2023-06-04T00:23:43;13.23;;;6.40;;
67798;SDS011;54596;43.216;27.904;2023-06-04T00:26:09;12.48;;;6.72;;
67798;SDS011;54596;43.216;27.904;2023-06-04T00:28:34;14.32;;;6.28;;
67798;SDS011;54596;43.216;27.904;2023-06-04T00:31:00;11.07;;;6.38;;
67798;SDS011;54596;43.216;27.904;2023-06-04T00:33:27;11.85;;;6.38;;
67798;SDS011;54596;43.216;27.904;2023-06-04T00:35:52;13.43;;;6.20;;
67798;SDS011;54596;43.216;27.904;2023-06-04T00:38:18;11.38;;;6.10;;
67798;SDS011;54596;43.216;27.904;2023-06-04T00:40:43;12.88;;;6.32;;
67798;SDS011;54596;43.216;27.904;2023-06-04T00:43:09;13.98;;;6.90;;
67798;SDS011;54596;43.216;27.904;2023-06-04T00:45:35;13.70;;;6.60;;
67798;SDS011;54596;43.216;27.904;2023-06-04T00:48:01;12.65;;;6.72;;
67798;SDS011;54596;43.216;27.904;2023-06-04T00:50:26;12.52;;;6.43;;
67798;SDS011;54596;43.216;27.904;2023-06-04T00:52:52;12.13;;;6.45;;
67798;SDS011;54596;43.216;27.904;2023-06-04T00:55:19;12.13;;;6.28;;
67798;SDS011;54596;43.216;27.904;2023-06-04T00:57:45;11.27;;;6.57;;
67798;SDS011;54596;43.216;27.904;2023-06-04T01:00:10;16.42;;;6.20;;
67798;SDS011;54596;43.216;27.904;2023-06-04T01:02:37;11.43;;;5.85;;
67798;SDS011;54596;43.216;27.904;2023-06-04T01:07:54;11.98;;;5.57;;
67798;SDS011;54596;43.216;27.904;2023-06-04T01:10:22;13.30;;;5.53;;
67798;SDS011;54596;43.216;27.904;2023-06-04T01:12:47;13.25;;;5.63;;
67798;SDS011;54596;43.216;27.904;2023-06-04T01:15:13;10.65;;;5.60;;
67798;SDS011;54596;43.216;27.904;2023-06-04T01:17:40;13.18;;;5.53;;
67798;SDS011;54596;43.216;27.904;2023-06-04T01:20:18;11.68;;;5.70;;
67798;SDS011;54596;43.216;27.904;2023-06-04T01:25:13;11.25;;;5.22;;
67798;SDS011;54596;43.216;27.904;2023-06-04T01:27:46;12.75;;;5.47;;
67798;SDS011;54596;43.216;27.904;2023-06-04T01:30:14;13.68;;;5.47;;
67798;SDS011;54596;43.216;27.904;2023-06-04T01:32:41;12.52;;;5.03;;
67798;SDS011;54596;43.216;27.904;2023-06-04T01:35:08;11.57;;;5.38;;
67798;SDS011;54596;43.216;27.904;2023-06-04T01:37:36;10.50;;;5.10;;
67798;SDS011;54596;43.216;27.904;2023-06-04T01:40:02;11.82;;;5.00;;
67798;SDS011;54596;43.216;27.904;2023-06-04T01:42:28;12.18;;;5.18;;
67798;SDS011;54596;43.216;27.904;2023-06-04T01:44:53;12.43;;;5.22;;
67798;SDS011;54596;43.216;27.904;2023-06-04T01:47:19;12.63;;;5.38;;
67798;SDS011;54596;43.216;27.904;2023-06-04T01:49:44;10.85;;;5.00;;
67798;SDS011;54596;43.216;27.904;2023-06-04T01:52:10;12.88;;;5.07;;
67798;SDS011;54596;43.216;27.904;2023-06-04T01:54:36;11.60;;;4.70;;
67798;SDS011;54596;43.216;27.904;2023-06-04T01:57:03;10.55;;;4.80;;
67798;SDS011;54596;43.216;27.904;2023-06-04T01:59:30;12.68;;;4.93;;
67798;SDS011;54596;43.216;27.904;2023-06-04T02:01:57;10.85;;;4.72;;
67798;SDS011;54596;43.216;27.904;2023-06-04T02:04:22;12.10;;;4.95;;
67798;SDS011;54596;43.216;27.904;2023-06-04T02:06:49;11.48;;;5.00;;
67798;SDS011;54596;43.216;27.904;2023-06-04T02:09:15;13.68;;;4.72;;
67798;SDS011;54596;43.216;27.904;2023-06-04T02:11:41;11.63;;;4.50;;
67798;SDS011;54596;43.216;27.904;2023-06-04T02:14:06;12.02;;;5.20;;
67798;SDS011;54596;43.216;27.904;2023-06-04T02:16:31;10.05;;;4.65;;
67798;SDS011;54596;43.216;27.904;2023-06-04T02:18:57;11.00;;;4.35;;
67798;SDS011;54596;43.216;27.904;2023-06-04T02:21:24;12.30;;;4.50;;
67798;SDS011;54596;43.216;27.904;2023-06-04T02:23:50;12.52;;;4.72;;
67798;SDS011;54596;43.216;27.904;2023-06-04T02:26:15;11.98;;;4.68;;
67798;SDS011;54596;43.216;27.904;2023-06-04T02:28:41;14.32;;;4.70;;
67798;SDS011;54596;43.216;27.904;2023-06-04T02:31:06;13.25;;;4.57;;
67798;SDS011;54596;43.216;27.904;2023-06-04T02:33:32;11.20;;;4.03;;
67798;SDS011;54596;43.216;27.904;2023-06-04T02:35:57;13.45;;;3.78;;
67798;SDS011;54596;43.216;27.904;2023-06-04T02:38:23;13.00;;;4.55;;
67798;SDS011;54596;43.216;27.904;2023-06-04T02:40:48;11.18;;;3.88;;
67798;SDS011;54596;43.216;27.904;2023-06-04T02:43:14;11.23;;;4.00;;
67798;SDS011;54596;43.216;27.904;2023-06-04T02:45:40;14.15;;;4.32;;
67798;SDS011;54596;43.216;27.904;2023-06-04T02:48:06;12.43;;;3.95;;
67798;SDS011;54596;43.216;27.904;2023-06-04T02:50:32;13.38;;;4.55;;
67798;SDS011;54596;43.216;27.904;2023-06-04T02:52:57;9.73;;;3.95;;
67798;SDS011;54596;43.216;27.904;2023-06-04T02:55:23;11.18;;;4.07;;
67798;SDS011;54596;43.216;27.904;2023-06-04T02:57:50;13.70;;;4.05;;
67798;SDS011;54596;43.216;27.904;2023-06-04T03:00:17;9.45;;;3.92;;
67798;SDS011;54596;43.216;27.904;2023-06-04T03:02:43;9.48;;;3.70;;
67798;SDS011;54596;43.216;27.904;2023-06-04T03:05:11;13.20;;;4.07;;
67798;SDS011;54596;43.216;27.904;2023-06-04T03:07:42;9.15;;;3.95;;
67798;SDS011;54596;43.216;27.904;2023-06-04T03:10:10;11.50;;;3.93;;
67798;SDS011;54596;43.216;27.904;2023-06-04T03:12:36;11.95;;;4.78;;
67798;SDS011;54596;43.216;27.904;2023-06-04T03:15:02;11.38;;;4.05;;
67798;SDS011;54596;43.216;27.904;2023-06-04T03:17:29;12.48;;;3.80;;
67798;SDS011;54596;43.216;27.904;2023-06-04T03:19:56;11.60;;;3.78;;
67798;SDS011;54596;43.216;27.904;2023-06-04T03:22:21;10.18;;;3.97;;
67798;SDS011;54596;43.216;27.904;2023-06-04T03:24:47;11.73;;;4.07;;
67798;SDS011;54596;43.216;27.904;2023-06-04T03:27:13;12.02;;;4.00;;
67798;SDS011;54596;43.216;27.904;2023-06-04T03:29:38;9.73;;;3.97;;
67798;SDS011;54596;43.216;27.904;2023-06-04T03:32:04;12.18;;;4.40;;
67798;SDS011;54596;43.216;27.904;2023-06-04T03:34:30;12.02;;;4.15;;
67798;SDS011;54596;43.216;27.904;2023-06-04T03:36:58;10.98;;;4.10;;
67798;SDS011;54596;43.216;27.904;2023-06-04T03:39:25;12.75;;;4.75;;
67798;SDS011;54596;43.216;27.904;2023-06-04T03:41:50;10.88;;;4.50;;
67798;SDS011;54596;43.216;27.904;2023-06-04T03:44:16;12.15;;;4.57;;
67798;SDS011;54596;43.216;27.904;2023-06-04T03:46:44;12.15;;;4.70;;
67798;SDS011;54596;43.216;27.904;2023-06-04T03:49:10;12.93;;;4.78;;
67798;SDS011;54596;43.216;27.904;2023-06-04T03:51:37;13.30;;;4.95;;
67798;SDS011;54596;43.216;27.904;2023-06-04T03:54:02;11.07;;;4.85;;
67798;SDS011;54596;43.216;27.904;2023-06-04T03:56:28;11.02;;;4.55;;
67798;SDS011;54596;43.216;27.904;2023-06-04T03:58:54;12.18;;;4.85;;
67798;SDS011;54596;43.216;27.904;2023-06-04T04:01:20;12.30;;;4.82;;
67798;SDS011;54596;43.216;27.904;2023-06-04T04:03:47;14.52;;;4.88;;
67798;SDS011;54596;43.216;27.904;2023-06-04T04:06:14;12.20;;;4.88;;
67798;SDS011;54596;43.216;27.904;2023-06-04T04:08:40;12.30;;;4.95;;
67798;SDS011;54596;43.216;27.904;2023-06-04T04:11:16;12.57;;;4.72;;
67798;SDS011;54596;43.216;27.904;2023-06-04T04:13:42;10.82;;;4.90;;
67798;SDS011;54596;43.216;27.904;2023-06-04T04:16:09;13.38;;;5.20;;
67798;SDS011;54596;43.216;27.904;2023-06-04T04:18:36;12.15;;;4.70;;
67798;SDS011;54596;43.216;27.904;2023-06-04T04:21:03;11.18;;;4.70;;
67798;SDS011;54596;43.216;27.904;2023-06-04T04:23:30;14.77;;;4.50;;
67798;SDS011;54596;43.216;27.904;2023-06-04T04:25:58;9.75;;;4.72;;
67798;SDS011;54596;43.216;27.904;2023-06-04T04:28:27;11.60;;;4.50;;
67798;SDS011;54596;43.216;27.904;2023-06-04T04:30:56;11.93;;;4.57;;
67798;SDS011;54596;43.216;27.904;2023-06-04T04:33:30;12.57;;;4.40;;
67798;SDS011;54596;43.216;27.904;2023-06-04T04:35:58;10.73;;;3.90;;
67798;SDS011;54596;43.216;27.904;2023-06-04T04:38:27;11.80;;;4.40;;
67798;SDS011;54596;43.216;27.904;2023-06-04T04:40:54;13.70;;;4.00;;
67798;SDS011;54596;43.216;27.904;2023-06-04T04:43:32;11.15;;;3.67;;
67798;SDS011;54596;43.216;27.904;2023-06-04T04:45:59;10.98;;;3.80;;
67798;SDS011;54596;43.216;27.904;2023-06-04T04:48:26;9.43;;;3.75;;
67798;SDS011;54596;43.216;27.904;2023-06-04T04:50:52;8.95;;;3.25;;
67798;SDS011;54596;43.216;27.904;2023-06-04T04:53:18;9.75;;;3.40;;
67798;SDS011;54596;43.216;27.904;2023-06-04T04:55:44;12.48;;;3.45;;
67798;SDS011;54596;43.216;27.904;2023-06-04T04:58:09;8.05;;;3.22;;
67798;SDS011;54596;43.216;27.904;2023-06-04T05:00:35;7.82;;;3.05;;
67798;SDS011;54596;43.216;27.904;2023-06-04T05:03:00;10.82;;;3.30;;
67798;SDS011;54596;43.216;27.904;2023-06-04T05:05:26;12.52;;;3.50;;
67798;SDS011;54596;43.216;27.904;2023-06-04T05:07:52;11.00;;;3.40;;
67798;SDS011;54596;43.216;27.904;2023-06-04T05:10:17;14.02;;;3.53;;
67798;SDS011;54596;43.216;27.904;2023-06-04T05:12:56;13.05;;;3.60;;
67798;SDS011;54596;43.216;27.904;2023-06-04T05:15:23;14.55;;;3.35;;
67798;SDS011;54596;43.216;27.904;2023-06-04T05:17:51;10.32;;;3.30;;
67798;SDS011;54596;43.216;27.904;2023-06-04T05:20:18;8.90;;;2.97;;
67798;SDS011;54596;43.216;27.904;2023-06-04T05:22:47;9.93;;;2.97;;
67798;SDS011;54596;43.216;27.904;2023-06-04T05:25:13;11.75;;;3.20;;
67798;SDS011;54596;43.216;27.904;2023-06-04T05:27:40;13.18;;;2.90;;
67798;SDS011;54596;43.216;27.904;2023-06-04T05:30:06;13.77;;;3.65;;
67798;SDS011;54596;43.216;27.904;2023-06-04T05:32:32;23.02;;;4.05;;
67798;SDS011;54596;43.216;27.904;2023-06-04T05:34:58;12.25;;;3.08;;
67798;SDS011;54596;43.216;27.904;2023-06-04T05:37:24;10.57;;;3.08;;
67798;SDS011;54596;43.216;27.904;2023-06-04T05:39:55;11.77;;;3.17;;
67798;SDS011;54596;43.216;27.904;2023-06-04T05:42:21;10.30;;;3.00;;
67798;SDS011;54596;43.216;27.904;2023-06-04T05:44:46;11.15;;;3.50;;
67798;SDS011;54596;43.216;27.904;2023-06-04T05:47:13;9.77;;;3.00;;
67798;SDS011;54596;43.216;27.904;2023-06-04T05:49:40;8.73;;;2.80;;
67798;SDS011;54596;43.216;27.904;2023-06-04T05:52:05;11.48;;;2.90;;
67798;SDS011;54596;43.216;27.904;2023-06-04T05:54:31;10.50;;;2.78;;
67798;SDS011;54596;43.216;27.904;2023-06-04T05:56:57;9.25;;;2.60;;
67798;SDS011;54596;43.216;27.904;2023-06-04T05:59:23;11.07;;;2.80;;
67798;SDS011;54596;43.216;27.904;2023-06-04T06:01:49;14.98;;;2.88;;
67798;SDS011;54596;43.216;27.904;2023-06-04T06:04:14;9.05;;;2.67;;
67798;SDS011;54596;43.216;27.904;2023-06-04T06:06:41;13.82;;;3.00;;
67798;SDS011;54596;43.216;27.904;2023-06-04T06:09:12;11.93;;;3.13;;
67798;SDS011;54596;43.216;27.904;2023-06-04T06:11:37;9.02;;;2.40;;
67798;SDS011;54596;43.216;27.904;2023-06-04T06:14:02;12.70;;;3.00;;
67798;SDS011;54596;43.216;27.904;2023-06-04T06:16:28;10.80;;;2.70;;
67798;SDS011;54596;43.216;27.904;2023-06-04T06:18:53;11.18;;;2.78;;
67798;SDS011;54596;43.216;27.904;2023-06-04T06:21:19;11.60;;;2.60;;
67798;SDS011;54596;43.216;27.904;2023-06-04T06:23:45;10.93;;;2.40;;
67798;SDS011;54596;43.216;27.904;2023-06-04T06:26:10;8.00;;;2.70;;
67798;SDS011;54596;43.216;27.904;2023-06-04T06:28:37;8.60;;;2.25;;
67798;SDS011;54596;43.216;27.904;2023-06-04T06:31:03;7.60;;;2.45;;
67798;SDS011;54596;43.216;27.904;2023-06-04T06:33:28;8.57;;;2.45;;
67798;SDS011;54596;43.216;27.904;2023-06-04T06:35:54;8.88;;;2.33;;
67798;SDS011;54596;43.216;27.904;2023-06-04T06:38:19;8.32;;;2.45;;
67798;SDS011;54596;43.216;27.904;2023-06-04T06:40:50;8.00;;;2.60;;
67798;SDS011;54596;43.216;27.904;2023-06-04T06:43:16;9.63;;;2.47;;
67798;SDS011;54596;43.216;27.904;2023-06-04T06:45:41;9.57;;;2.60;;
67798;SDS011;54596;43.216;27.904;2023-06-04T06:48:07;12.32;;;2.70;;
67798;SDS011;54596;43.216;27.904;2023-06-04T06:50:35;11.38;;;2.90;;
67798;SDS011;54596;43.216;27.904;2023-06-04T06:53:02;6.90;;;2.50;;
67798;SDS011;54596;43.216;27.904;2023-06-04T06:55:28;11.98;;;2.65;;
67798;SDS011;54596;43.216;27.904;2023-06-04T06:57:53;12.27;;;2.72;;
67798;SDS011;54596;43.216;27.904;2023-06-04T07:00:19;9.10;;;2.55;;
67798;SDS011;54596;43.216;27.904;2023-06-04T07:02:44;10.95;;;2.97;;
67798;SDS011;54596;43.216;27.904;2023-06-04T07:05:11;7.53;;;2.70;;
67798;SDS011;54596;43.216;27.904;2023-06-04T07:07:39;10.70;;;2.80;;
67798;SDS011;54596;43.216;27.904;2023-06-04T07:10:05;11.50;;;2.72;;
67798;SDS011;54596;43.216;27.904;2023-06-04T07:12:30;10.73;;;2.65;;
67798;SDS011;54596;43.216;27.904;2023-06-04T07:14:56;13.20;;;2.53;;
67798;SDS011;54596;43.216;27.904;2023-06-04T07:17:22;9.73;;;2.67;;
67798;SDS011;54596;43.216;27.904;2023-06-04T07:19:47;12.38;;;2.90;;
67798;SDS011;54596;43.216;27.904;2023-06-04T07:22:13;10.65;;;3.00;;
67798;SDS011;54596;43.216;27.904;2023-06-04T07:24:41;11.45;;;2.95;;
67798;SDS011;54596;43.216;27.904;2023-06-04T07:27:13;13.50;;;3.13;;
67798;SDS011;54596;43.216;27.904;2023-06-04T07:29:39;12.48;;;3.00;;
67798;SDS011;54596;43.216;27.904;2023-06-04T07:32:05;9.38;;;3.08;;
67798;SDS011;54596;43.216;27.904;2023-06-04T07:34:31;9.88;;;3.60;;
67798;SDS011;54596;43.216;27.904;2023-06-04T07:36:57;8.63;;;2.70;;
67798;SDS011;54596;43.216;27.904;2023-06-04T07:39:23;7.97;;;2.70;;
67798;SDS011;54596;43.216;27.904;2023-06-04T07:41:48;10.77;;;2.75;;
67798;SDS011;54596;43.216;27.904;2023-06-04T07:44:14;11.40;;;3.10;;
67798;SDS011;54596;43.216;27.904;2023-06-04T07:46:39;7.22;;;2.70;;
67798;SDS011;54596;43.216;27.904;2023-06-04T07:49:05;12.05;;;3.00;;
67798;SDS011;54596;43.216;27.904;2023-06-04T07:51:30;8.15;;;2.80;;
67798;SDS011;54596;43.216;27.904;2023-06-04T07:53:56;8.65;;;2.88;;
67798;SDS011;54596;43.216;27.904;2023-06-04T07:56:21;13.50;;;2.78;;
67798;SDS011;54596;43.216;27.904;2023-06-04T07:58:47;13.07;;;2.92;;
67798;SDS011;54596;43.216;27.904;2023-06-04T08:01:14;8.40;;;2.60;;
67798;SDS011;54596;43.216;27.904;2023-06-04T08:03:40;10.80;;;3.15;;
67798;SDS011;54596;43.216;27.904;2023-06-04T08:06:06;9.27;;;2.85;;
67798;SDS011;54596;43.216;27.904;2023-06-04T08:08:32;13.10;;;3.10;;
67798;SDS011;54596;43.216;27.904;2023-06-04T08:10:59;9.95;;;3.10;;
67798;SDS011;54596;43.216;27.904;2023-06-04T08:13:25;13.60;;;3.28;;
67798;SDS011;54596;43.216;27.904;2023-06-04T08:15:51;10.10;;;3.00;;
67798;SDS011;54596;43.216;27.904;2023-06-04T08:18:18;10.35;;;2.92;;
67798;SDS011;54596;43.216;27.904;2023-06-04T08:20:43;10.10;;;3.10;;
67798;SDS011;54596;43.216;27.904;2023-06-04T08:23:09;9.30;;;3.15;;
67798;SDS011;54596;43.216;27.904;2023-06-04T08:25:34;8.32;;;2.88;;
67798;SDS011;54596;43.216;27.904;2023-06-04T08:28:00;11.38;;;3.20;;
67798;SDS011;54596;43.216;27.904;2023-06-04T08:30:26;10.35;;;3.08;;
67798;SDS011;54596;43.216;27.904;2023-06-04T08:32:52;8.88;;;3.17;;
67798;SDS011;54596;43.216;27.904;2023-06-04T08:35:18;10.25;;;3.08;;
67798;SDS011;54596;43.216;27.904;2023-06-04T08:37:44;8.55;;;2.92;;
67798;SDS011;54596;43.216;27.904;2023-06-04T08:40:09;10.43;;;3.03;;
67798;SDS011;54596;43.216;27.904;2023-06-04T08:42:42;10.48;;;3.05;;
67798;SDS011;54596;43.216;27.904;2023-06-04T08:45:10;8.10;;;2.80;;
67798;SDS011;54596;43.216;27.904;2023-06-04T08:47:47;12.40;;;3.05;;
67798;SDS011;54596;43.216;27.904;2023-06-04T08:50:20;9.13;;;3.25;;
67798;SDS011;54596;43.216;27.904;2023-06-04T08:52:48;9.23;;;2.85;;
67798;SDS011;54596;43.216;27.904;2023-06-04T08:55:17;10.68;;;2.88;;
67798;SDS011;54596;43.216;27.904;2023-06-04T08:57:44;12.48;;;4.05;;
67798;SDS011;54596;43.216;27.904;2023-06-04T09:00:11;10.00;;;3.10;;
67798;SDS011;54596;43.216;27.904;2023-06-04T09:02:38;9.10;;;3.00;;
67798;SDS011;54596;43.216;27.904;2023-06-04T09:05:04;10.35;;;2.80;;
67798;SDS011;54596;43.216;27.904;2023-06-04T09:07:34;10.55;;;3.20;;
67798;SDS011;54596;43.216;27.904;2023-06-04T09:10:02;8.52;;;2.90;;
67798;SDS011;54596;43.216;27.904;2023-06-04T09:12:29;13.00;;;3.05;;
67798;SDS011;54596;43.216;27.904;2023-06-04T09:14:55;9.73;;;2.83;;
67798;SDS011;54596;43.216;27.904;2023-06-04T09:17:21;10.15;;;2.65;;
67798;SDS011;54596;43.216;27.904;2023-06-04T09:19:48;9.15;;;2.78;;
67798;SDS011;54596;43.216;27.904;2023-06-04T09:22:15;17.90;;;3.30;;
67798;SDS011;54596;43.216;27.904;2023-06-04T09:24:44;13.02;;;3.08;;
67798;SDS011;54596;43.216;27.904;2023-06-04T09:27:19;10.32;;;3.00;;
67798;SDS011;54596;43.216;27.904;2023-06-04T09:29:57;10.05;;;2.85;;
67798;SDS011;54596;43.216;27.904;2023-06-04T09:32:27;8.77;;;2.97;;
67798;SDS011;54596;43.216;27.904;2023-06-04T09:34:55;10.53;;;3.83;;
67798;SDS011;54596;43.216;27.904;2023-06-04T09:37:22;11.68;;;3.13;;
67798;SDS011;54596;43.216;27.904;2023-06-04T09:39:54;7.20;;;2.85;;
67798;SDS011;54596;43.216;27.904;2023-06-04T09:42:21;10.65;;;2.97;;
67798;SDS011;54596;43.216;27.904;2023-06-04T09:44:47;10.35;;;2.67;;
67798;SDS011;54596;43.216;27.904;2023-06-04T09:47:13;8.57;;;2.60;;
67798;SDS011;54596;43.216;27.904;2023-06-04T09:49:42;17.33;;;2.95;;
67798;SDS011;54596;43.216;27.904;2023-06-04T09:52:09;11.15;;;3.03;;
67798;SDS011;54596;43.216;27.904;2023-06-04T09:54:39;8.63;;;2.95;;
67798;SDS011;54596;43.216;27.904;2023-06-04T09:57:19;10.20;;;3.30;;
67798;SDS011;54596;43.216;27.904;2023-06-04T09:59:45;10.05;;;2.95;;
67798;SDS011;54596;43.216;27.904;2023-06-04T10:02:14;9.25;;;2.75;;
67798;SDS011;54596;43.216;27.904;2023-06-04T10:04:53;9.13;;;2.97;;
67798;SDS011;54596;43.216;27.904;2023-06-04T10:07:22;11.07;;;2.80;;
67798;SDS011;54596;43.216;27.904;2023-06-04T10:09:49;9.02;;;2.88;;
67798;SDS011;54596;43.216;27.904;2023-06-04T10:12:15;11.13;;;2.90;;
67798;SDS011;54596;43.216;27.904;2023-06-04T10:14:45;10.10;;;2.88;;
67798;SDS011;54596;43.216;27.904;2023-06-04T10:17:16;8.38;;;2.78;;
67798;SDS011;54596;43.216;27.904;2023-06-04T10:19:43;11.20;;;3.17;;
67798;SDS011;54596;43.216;27.904;2023-06-04T10:22:10;9.98;;;2.65;;
67798;SDS011;54596;43.216;27.904;2023-06-04T10:24:36;10.45;;;3.80;;
67798;SDS011;54596;43.216;27.904;2023-06-04T10:27:02;9.77;;;3.00;;
67798;SDS011;54596;43.216;27.904;2023-06-04T10:29:35;13.07;;;2.92;;
67798;SDS011;54596;43.216;27.904;2023-06-04T10:32:01;13.80;;;4.20;;
67798;SDS011;54596;43.216;27.904;2023-06-04T10:34:26;13.45;;;3.42;;
67798;SDS011;54596;43.216;27.904;2023-06-04T10:36:52;9.65;;;2.70;;
67798;SDS011;54596;43.216;27.904;2023-06-04T10:39:28;12.88;;;2.95;;
67798;SDS011;54596;43.216;27.904;2023-06-04T10:42:01;11.05;;;2.78;;
67798;SDS011;54596;43.216;27.904;2023-06-04T10:44:28;9.82;;;2.72;;
67798;SDS011;54596;43.216;27.904;2023-06-04T10:46:55;10.57;;;3.20;;
67798;SDS011;54596;43.216;27.904;2023-06-04T10:49:28;11.52;;;2.78;;
67798;SDS011;54596;43.216;27.904;2023-06-04T10:51:54;9.85;;;2.90;;
67798;SDS011;54596;43.216;27.904;2023-06-04T10:54:24;12.32;;;3.08;;
67798;SDS011;54596;43.216;27.904;2023-06-04T10:56:51;13.80;;;3.17;;
67798;SDS011;54596;43.216;27.904;2023-06-04T10:59:17;11.13;;;2.72;;
67798;SDS011;54596;43.216;27.904;2023-06-04T11:01:44;7.88;;;2.75;;
67798;SDS011;54596;43.216;27.904;2023-06-04T11:04:22;17.30;;;4.78;;
67798;SDS011;54596;43.216;27.904;2023-06-04T11:07:05;12.70;;;3.03;;
67798;SDS011;54596;43.216;27.904;2023-06-04T11:09:47;12.52;;;3.97;;
67798;SDS011;54596;43.216;27.904;2023-06-04T11:12:14;21.63;;;7.28;;
67798;SDS011;54596;43.216;27.904;2023-06-04T11:14:40;13.02;;;3.10;;
67798;SDS011;54596;43.216;27.904;2023-06-04T11:17:12;15.90;;;6.47;;
67798;SDS011;54596;43.216;27.904;2023-06-04T11:19:39;12.30;;;3.05;;
67798;SDS011;54596;43.216;27.904;2023-06-04T11:22:04;15.80;;;3.65;;
67798;SDS011;54596;43.216;27.904;2023-06-04T11:24:30;17.08;;;7.45;;
67798;SDS011;54596;43.216;27.904;2023-06-04T11:26:58;12.45;;;4.00;;
67798;SDS011;54596;43.216;27.904;2023-06-04T11:29:27;11.32;;;2.70;;
67798;SDS011;54596;43.216;27.904;2023-06-04T11:31:53;16.52;;;2.88;;
67798;SDS011;54596;43.216;27.904;2023-06-04T11:34:25;13.90;;;3.00;;
67798;SDS011;54596;43.216;27.904;2023-06-04T11:36:55;15.18;;;3.30;;
67798;SDS011;54596;43.216;27.904;2023-06-04T11:39:21;12.02;;;3.13;;
67798;SDS011;54596;43.216;27.904;2023-06-04T11:41:47;14.45;;;3.08;;
67798;SDS011;54596;43.216;27.904;2023-06-04T11:44:18;12.50;;;2.75;;
67798;SDS011;54596;43.216;27.904;2023-06-04T11:46:44;11.55;;;2.72;;
67798;SDS011;54596;43.216;27.904;2023-06-04T11:49:17;15.27;;;2.85;;
67798;SDS011;54596;43.216;27.904;2023-06-04T11:51:47;10.95;;;2.72;;
67798;SDS011;54596;43.216;27.904;2023-06-04T11:54:13;11.10;;;2.47;;
67798;SDS011;54596;43.216;27.904;2023-06-04T11:56:42;12.30;;;2.67;;
67798;SDS011;54596;43.216;27.904;2023-06-04T11:59:12;22.27;;;2.90;;
67798;SDS011;54596;43.216;27.904;2023-06-04T12:01:42;16.45;;;2.80;;
67798;SDS011;54596;43.216;27.904;2023-06-04T12:04:18;9.13;;;2.50;;
67798;SDS011;54596;43.216;27.904;2023-06-04T12:07:03;10.02;;;2.55;;
67798;SDS011;54596;43.216;27.904;2023-06-04T12:09:31;10.63;;;2.47;;
67798;SDS011;54596;43.216;27.904;2023-06-04T12:14:26;10.02;;;2.42;;
67798;SDS011;54596;43.216;27.904;2023-06-04T12:16:56;11.50;;;2.58;;
67798;SDS011;54596;43.216;27.904;2023-06-04T12:19:21;13.48;;;2.70;;
67798;SDS011;54596;43.216;27.904;2023-06-04T12:21:58;8.35;;;2.70;;
67798;SDS011;54596;43.216;27.904;2023-06-04T12:24:45;11.63;;;2.50;;
67798;SDS011;54596;43.216;27.904;2023-06-04T12:27:14;9.80;;;3.15;;
67798;SDS011;54596;43.216;27.904;2023-06-04T12:29:40;13.75;;;3.08;;
67798;SDS011;54596;43.216;27.904;2023-06-04T12:32:09;10.43;;;2.90;;
67798;SDS011;54596;43.216;27.904;2023-06-04T12:34:41;12.85;;;2.60;;
67798;SDS011;54596;43.216;27.904;2023-06-04T12:37:07;13.90;;;2.85;;
67798;SDS011;54596;43.216;27.904;2023-06-04T12:39:33;10.80;;;2.50;;
67798;SDS011;54596;43.216;27.904;2023-06-04T12:41:59;9.30;;;2.90;;
67798;SDS011;54596;43.216;27.904;2023-06-04T12:44:25;10.82;;;2.90;;
67798;SDS011;54596;43.216;27.904;2023-06-04T12:46:51;9.82;;;3.15;;
67798;SDS011;54596;43.216;27.904;2023-06-04T12:49:16;11.40;;;2.67;;
67798;SDS011;54596;43.216;27.904;2023-06-04T12:51:42;12.38;;;2.72;;
67798;SDS011;54596;43.216;27.904;2023-06-04T12:54:07;10.80;;;2.85;;
67798;SDS011;54596;43.216;27.904;2023-06-04T12:56:33;12.20;;;3.00;;
67798;SDS011;54596;43.216;27.904;2023-06-04T12:58:59;13.75;;;2.80;;
67798;SDS011;54596;43.216;27.904;2023-06-04T13:01:24;9.00;;;2.47;;
67798;SDS011;54596;43.216;27.904;2023-06-04T13:03:50;9.77;;;2.70;;
67798;SDS011;54596;43.216;27.904;2023-06-04T13:06:15;10.55;;;2.80;;
67798;SDS011;54596;43.216;27.904;2023-06-04T13:08:41;9.35;;;2.85;;
67798;SDS011;54596;43.216;27.904;2023-06-04T13:11:07;9.77;;;2.70;;
67798;SDS011;54596;43.216;27.904;2023-06-04T13:13:34;10.40;;;2.50;;
67798;SDS011;54596;43.216;27.904;2023-06-04T13:16:00;13.25;;;3.00;;
67798;SDS011;54596;43.216;27.904;2023-06-04T13:18:26;9.05;;;2.50;;
67798;SDS011;54596;43.216;27.904;2023-06-04T13:20:51;12.38;;;2.70;;
67798;SDS011;54596;43.216;27.904;2023-06-04T13:23:17;11.57;;;2.65;;
67798;SDS011;54596;43.216;27.904;2023-06-04T13:25:42;10.32;;;2.53;;
67798;SDS011;54596;43.216;27.904;2023-06-04T13:28:08;18.45;;;3.10;;
67798;SDS011;54596;43.216;27.904;2023-06-04T13:30:37;13.48;;;3.08;;
67798;SDS011;54596;43.216;27.904;2023-06-04T13:33:03;10.48;;;2.88;;
67798;SDS011;54596;43.216;27.904;2023-06-04T13:35:28;11.25;;;2.85;;
67798;SDS011;54596;43.216;27.904;2023-06-04T13:37:54;13.20;;;2.95;;
67798;SDS011;54596;43.216;27.904;2023-06-04T13:40:19;11.77;;;2.92;;
67798;SDS011;54596;43.216;27.904;2023-06-04T13:42:45;10.20;;;3.22;;
67798;SDS011;54596;43.216;27.904;2023-06-04T13:45:11;12.27;;;2.72;;
67798;SDS011;54596;43.216;27.904;2023-06-04T13:47:36;11.68;;;3.05;;
67798;SDS011;54596;43.216;27.904;2023-06-04T13:50:02;11.30;;;2.78;;
67798;SDS011;54596;43.216;27.904;2023-06-04T13:52:28;10.65;;;2.70;;
67798;SDS011;54596;43.216;27.904;2023-06-04T13:54:54;12.98;;;2.90;;
67798;SDS011;54596;43.216;27.904;2023-06-04T13:57:20;10.75;;;3.03;;
67798;SDS011;54596;43.216;27.904;2023-06-04T13:59:46;13.02;;;2.78;;
67798;SDS011;54596;43.216;27.904;2023-06-04T14:02:11;9.10;;;2.45;;
67798;SDS011;54596;43.216;27.904;2023-06-04T14:04:37;11.65;;;3.00;;
67798;SDS011;54596;43.216;27.904;2023-06-04T14:07:02;14.43;;;2.92;;
67798;SDS011;54596;43.216;27.904;2023-06-04T14:09:28;11.63;;;2.85;;
67798;SDS011;54596;43.216;27.904;2023-06-04T14:11:53;15.48;;;2.88;;
67798;SDS011;54596;43.216;27.904;2023-06-04T14:14:22;33.30;;;3.28;;
67798;SDS011;54596;43.216;27.904;2023-06-04T14:16:48;10.32;;;2.75;;
67798;SDS011;54596;43.216;27.904;2023-06-04T14:19:14;13.90;;;3.13;;
67798;SDS011;54596;43.216;27.904;2023-06-04T14:21:43;11.70;;;2.90;;
67798;SDS011;54596;43.216;27.904;2023-06-04T14:24:09;12.65;;;2.70;;
67798;SDS011;54596;43.216;27.904;2023-06-04T14:26:35;10.90;;;2.88;;
67798;SDS011;54596;43.216;27.904;2023-06-04T14:29:02;12.55;;;3.00;;
67798;SDS011;54596;43.216;27.904;2023-06-04T14:31:27;10.32;;;2.53;;